»·PEaware :: N247CH KBZN-KGEG

N247CH :: KBZN-KGEG

FLIGHT INFORMATION

Flight Status: Arrived
Operator: Privately registered:
United States
More flights under this callsign
Pilot: Nicholas M. (29234)
Aircraft: BEECH AIRCRAFT SUPER KING AIR 350
(B350)
More flights by this aircraft type
Origin: KBZN Gallatin
United States
Destination: KGEG Spokane Intl
United States
More flights between these airports :: More routes between these airports
Route: +HIA5 HIA MLP HILIE2
File this flight plan on PilotEdge
Remarks:
Altitude:
(Current/Filed)
28,000ft
Speed:
(Current/Filed)
300kts
Departed: 25-Apr-20 09:59 AM
Arrived: 25-Apr-20 11:22 AM
Distance/Time
Traveled:
285nm/1:23
Distance/Time
To Go:
Arrived

Flight Plot

Page will automatically refresh every two minutes.

Flight plan parsing failed; only flown route is shown


Map Options




Map Legend


Flown Route
Filed Route
Departure Airport
Arrival Airport
Navaid (VOR, NDB)
Fix

Horizontal Profiles

Position Reports

Time Latitude Longitude Heading Altitude Ground
Speed
25-Apr-20 09:27 45.768174 -111.146919 318 4471ft 0kts
25-Apr-20 09:28 45.768174 -111.146919 318 4471ft 0kts
25-Apr-20 09:29 45.768174 -111.146919 318 4471ft 0kts
25-Apr-20 09:30 45.768174 -111.146919 318 4471ft 0kts
25-Apr-20 09:31 45.768174 -111.146919 318 4471ft 0kts
25-Apr-20 09:32 45.768174 -111.146919 318 4471ft 0kts
25-Apr-20 09:33 45.768174 -111.146919 318 4471ft 0kts
25-Apr-20 09:34 45.768174 -111.146919 318 4471ft 0kts
25-Apr-20 09:35 45.768174 -111.146919 318 4471ft 0kts
25-Apr-20 09:36 45.768174 -111.146919 318 4471ft 0kts
25-Apr-20 09:37 45.768174 -111.146920 318 4471ft 0kts
25-Apr-20 09:38 45.768174 -111.146919 318 4471ft 0kts
25-Apr-20 09:39 45.768174 -111.146919 318 4471ft 0kts
25-Apr-20 09:40 45.768174 -111.146920 318 4471ft 0kts
25-Apr-20 09:41 45.768174 -111.146920 318 4471ft 0kts
25-Apr-20 09:42 45.768174 -111.146920 318 4471ft 0kts
25-Apr-20 09:43 45.768174 -111.146920 318 4471ft 0kts
25-Apr-20 09:44 45.768174 -111.146920 318 4471ft 0kts
25-Apr-20 09:45 45.768174 -111.146920 318 4471ft 0kts
25-Apr-20 09:46 45.768174 -111.146920 318 4471ft 0kts
25-Apr-20 09:47 45.768174 -111.146920 318 4471ft 0kts
25-Apr-20 09:48 45.768174 -111.146920 318 4471ft 0kts
25-Apr-20 09:49 45.768174 -111.146920 318 4471ft 0kts
25-Apr-20 09:50 45.768288 -111.147023 349 4471ft 5kts
25-Apr-20 09:51 45.771361 -111.147366 314 4466ft 18kts
25-Apr-20 09:52 45.774571 -111.151824 317 4461ft 13kts
25-Apr-20 09:53 45.778139 -111.156800 315 4454ft 22kts
25-Apr-20 09:54 45.782354 -111.162672 312 4446ft 23kts
25-Apr-20 09:55 45.786901 -111.168051 49 4433ft 15kts
25-Apr-20 09:56 45.787326 -111.167397 49 4431ft 0kts
25-Apr-20 09:57 45.787795 -111.166632 67 4432ft 13kts
25-Apr-20 09:58 45.772003 -111.145430 143 5158ft 145kts
25-Apr-20 09:59 45.744490 -111.179810 266 6788ft 186kts
25-Apr-20 10:00 45.740683 -111.252115 266 8816ft 183kts
25-Apr-20 10:01 45.720037 -111.317859 241 10622ft 181kts
25-Apr-20 10:02 45.700848 -111.368961 242 12040ft 178kts
25-Apr-20 10:03 45.678282 -111.431634 242 13554ft 179kts
25-Apr-20 10:04 45.664968 -111.495776 292 15220ft 154kts
25-Apr-20 10:05 45.675462 -111.539773 298 16338ft 165kts
25-Apr-20 10:06 45.695309 -111.599052 295 17543ft 165kts
25-Apr-20 10:07 45.713325 -111.659041 293 18759ft 164kts
25-Apr-20 10:08 45.730545 -111.718759 294 20030ft 161kts
25-Apr-20 10:09 45.747707 -111.777700 295 21366ft 163kts
25-Apr-20 10:10 45.764545 -111.835564 295 23584ft 155kts
25-Apr-20 10:11 45.780710 -111.891131 295 25743ft 151kts
25-Apr-20 10:12 45.796494 -111.945496 295 27838ft 146kts
25-Apr-20 10:13 45.814564 -112.007627 294 28154ft 196kts
25-Apr-20 10:14 45.837175 -112.085595 294 28140ft 224kts
25-Apr-20 10:15 45.862107 -112.171816 294 28136ft 240kts
25-Apr-20 10:16 45.898231 -112.253762 304 28132ft 248kts
25-Apr-20 10:17 45.938310 -112.336232 303 28131ft 253kts
25-Apr-20 10:18 45.978863 -112.419890 303 28130ft 256kts
25-Apr-20 10:19 46.019914 -112.504488 304 28129ft 258kts
25-Apr-20 10:20 46.060999 -112.589540 303 28127ft 259kts
25-Apr-20 10:21 46.102209 -112.675329 303 28137ft 257kts
25-Apr-20 10:22 46.144238 -112.759009 303 28142ft 258kts
25-Apr-20 10:23 46.184994 -112.844420 302 28140ft 259kts
25-Apr-20 10:24 46.226005 -112.930489 302 28139ft 260kts
25-Apr-20 10:25 46.267172 -113.016959 302 28138ft 260kts
25-Apr-20 10:26 46.306426 -113.099677 302 28137ft 260kts
25-Apr-20 10:27 46.348152 -113.188051 302 28136ft 261kts
25-Apr-20 10:28 46.389045 -113.274854 302 28179ft 259kts
25-Apr-20 10:29 46.429830 -113.361762 301 28153ft 261kts
25-Apr-20 10:30 46.470595 -113.448827 302 28152ft 261kts
25-Apr-20 10:31 46.511221 -113.536067 301 28150ft 260kts
25-Apr-20 10:32 46.552072 -113.623697 301 28150ft 261kts
25-Apr-20 10:33 46.592315 -113.711820 300 28158ft 262kts
25-Apr-20 10:34 46.633049 -113.800157 300 28157ft 263kts
25-Apr-20 10:35 46.673772 -113.888493 300 28156ft 264kts
25-Apr-20 10:37 46.713885 -113.975751 300 28155ft 264kts
25-Apr-20 10:38 46.754229 -114.063804 300 28154ft 264kts
25-Apr-20 10:39 46.795004 -114.153138 300 28153ft 264kts
25-Apr-20 10:40 46.835905 -114.243105 300 28152ft 265kts
25-Apr-20 10:41 46.876655 -114.333026 300 28151ft 265kts
25-Apr-20 10:42 46.917380 -114.423183 300 28150ft 265kts
25-Apr-20 10:43 46.957988 -114.513525 299 28148ft 265kts
25-Apr-20 10:44 46.998245 -114.603066 299 28149ft 265kts
25-Apr-20 10:45 47.038651 -114.694695 298 28157ft 267kts
25-Apr-20 10:46 47.079154 -114.785781 298 28157ft 268kts
25-Apr-20 10:47 47.119894 -114.875799 299 28157ft 269kts
25-Apr-20 10:48 47.161588 -114.969035 298 28156ft 270kts
25-Apr-20 10:49 47.202683 -115.061956 298 28129ft 271kts
25-Apr-20 10:50 47.243807 -115.155409 298 28127ft 271kts
25-Apr-20 10:51 47.284633 -115.248896 298 28126ft 271kts
25-Apr-20 10:52 47.325339 -115.342260 297 28125ft 271kts
25-Apr-20 10:53 47.366243 -115.436368 297 28118ft 271kts
25-Apr-20 10:54 47.407482 -115.531565 297 27404ft 278kts
25-Apr-20 10:55 47.448082 -115.625597 297 25927ft 265kts
25-Apr-20 10:56 47.461709 -115.725675 273 24742ft 240kts
25-Apr-20 10:56 47.466849 -115.805771 273 23809ft 231kts
25-Apr-20 10:57 47.472571 -115.898523 273 22667ft 225kts
25-Apr-20 10:59 47.477852 -115.985542 272 21588ft 222kts
25-Apr-20 10:59 47.483253 -116.075731 272 20470ft 218kts
25-Apr-20 11:00 47.488367 -116.162256 272 19395ft 215kts
25-Apr-20 11:01 47.493321 -116.247159 271 18340ft 211kts
25-Apr-20 11:02 47.498331 -116.334150 271 17263ft 209kts
25-Apr-20 11:03 47.503057 -116.417275 271 16241ft 206kts
25-Apr-20 11:04 47.507732 -116.500631 271 15211ft 204kts
25-Apr-20 11:05 47.511220 -116.563519 270 14440ft 203kts
25-Apr-20 11:06 47.516568 -116.661230 269 13260ft 202kts
25-Apr-20 11:07 47.521081 -116.744815 269 12294ft 202kts
25-Apr-20 11:08 47.525491 -116.827649 269 11355ft 203kts
25-Apr-20 11:09 47.553162 -116.897175 304 10455ft 218kts
25-Apr-20 11:10 47.590041 -116.960192 303 9623ft 219kts
25-Apr-20 11:11 47.629444 -117.029500 303 8737ft 221kts
25-Apr-20 11:12 47.668248 -117.100427 304 7865ft 222kts
25-Apr-20 11:13 47.705678 -117.171030 304 6977ft 210kts
25-Apr-20 11:14 47.740671 -117.238685 304 6022ft 203kts
25-Apr-20 11:15 47.763761 -117.309680 256 5040ft 191kts
25-Apr-20 11:16 47.734387 -117.365691 217 4367ft 170kts
25-Apr-20 11:17 47.704146 -117.408313 223 4288ft 144kts
25-Apr-20 11:18 47.672695 -117.455693 223 3542ft 177kts
25-Apr-20 11:19 47.637529 -117.508866 227 2662ft 182kts
25-Apr-20 11:20 47.615901 -117.541370 225 2372ft 42kts
25-Apr-20 11:21 47.613294 -117.543057 127 2377ft 0kts
25-Apr-20 11:22 47.615227 -117.538509 73 2373ft 26kts

Navigation Log

Ident Type
Flight plan parsing failed, navigation log unavailable